createdAt,value
2022-08-20T00:02:22.758Z,1.13
2022-08-20T00:04:50.151Z,1.20
2022-08-20T00:07:17.531Z,0.90
2022-08-20T00:09:45.427Z,1.03
2022-08-20T00:12:13.922Z,1.00
2022-08-20T00:14:41.553Z,1.70
2022-08-20T00:17:09.022Z,1.30
2022-08-20T00:19:36.404Z,1.37
2022-08-20T00:22:04.087Z,2.70
2022-08-20T00:24:31.465Z,1.00
2022-08-20T00:26:58.813Z,1.20
2022-08-20T00:29:26.154Z,1.17
2022-08-20T00:31:53.474Z,1.00
2022-08-20T00:34:20.822Z,1.10
2022-08-20T00:36:48.142Z,1.00
2022-08-20T00:39:15.541Z,1.20
2022-08-20T00:41:42.916Z,1.67
2022-08-20T00:44:12.294Z,0.93
2022-08-20T00:46:40.058Z,0.80
2022-08-20T00:49:08.627Z,1.13
2022-08-20T00:51:35.943Z,1.07
2022-08-20T00:54:15.710Z,1.13
2022-08-20T00:56:44.869Z,1.37
2022-08-20T00:59:15.014Z,0.97
2022-08-20T01:01:54.845Z,1.03
2022-08-20T01:04:23.373Z,0.90
2022-08-20T01:06:50.961Z,1.10
2022-08-20T01:09:18.352Z,1.30
2022-08-20T01:12:07.215Z,1.07
2022-08-20T01:14:34.579Z,1.10
2022-08-20T01:17:04.322Z,0.77
2022-08-20T01:19:55.142Z,0.90
2022-08-20T01:22:45.059Z,1.10
2022-08-20T01:25:17.361Z,1.10
2022-08-20T01:27:46.081Z,0.80
2022-08-20T01:30:13.581Z,0.80
2022-08-20T01:32:40.900Z,1.10
2022-08-20T01:35:09.369Z,0.90
2022-08-20T01:37:36.710Z,1.30
2022-08-20T01:40:05.178Z,0.90
2022-08-20T01:42:52.822Z,0.90
2022-08-20T01:45:30.257Z,1.03
2022-08-20T01:47:58.148Z,1.03
2022-08-20T01:50:28.212Z,0.80
2022-08-20T01:53:02.639Z,1.20
2022-08-20T01:55:29.943Z,1.20
2022-08-20T01:57:57.793Z,1.20
2022-08-20T02:00:26.131Z,1.00
2022-08-20T02:02:53.463Z,1.20
2022-08-20T02:05:20.904Z,0.80
2022-08-20T02:07:48.867Z,1.00
2022-08-20T02:10:17.463Z,1.00
2022-08-20T02:12:44.819Z,0.83
2022-08-20T02:15:12.532Z,1.00
2022-08-20T02:17:41.003Z,0.93
2022-08-20T02:20:11.133Z,1.10
2022-08-20T02:22:44.275Z,0.97
2022-08-20T02:25:18.414Z,1.10
2022-08-20T02:27:46.583Z,0.93
2022-08-20T02:30:27.345Z,1.23
2022-08-20T02:32:56.606Z,1.10
2022-08-20T02:35:24.370Z,0.83
2022-08-20T02:37:51.899Z,1.10
2022-08-20T02:40:30.446Z,1.10
2022-08-20T02:43:01.841Z,1.20
2022-08-20T02:45:30.194Z,0.93
2022-08-20T02:47:58.908Z,0.83
2022-08-20T02:50:26.920Z,1.27
2022-08-20T02:52:54.606Z,1.30
2022-08-20T02:55:27.120Z,0.90
2022-08-20T02:57:59.679Z,1.00
2022-08-20T03:00:28.407Z,0.97
2022-08-20T03:02:56.467Z,0.97
2022-08-20T03:05:23.783Z,1.17
2022-08-20T03:07:59.819Z,1.13
2022-08-20T03:10:29.657Z,1.30
2022-08-20T03:12:57.000Z,1.57
2022-08-20T03:15:24.373Z,1.10
2022-08-20T03:17:51.745Z,0.90
2022-08-20T03:20:23.765Z,1.10
2022-08-20T03:22:51.357Z,1.00
2022-08-20T03:25:18.899Z,1.10
2022-08-20T03:27:47.215Z,0.87
2022-08-20T03:30:21.992Z,1.00
2022-08-20T03:32:49.286Z,1.30
2022-08-20T03:35:17.224Z,1.20
2022-08-20T03:37:48.141Z,0.80
2022-08-20T03:40:18.592Z,1.40
2022-08-20T03:42:45.908Z,1.20
2022-08-20T03:45:17.109Z,0.83
2022-08-20T03:47:47.362Z,1.87
2022-08-20T03:50:22.769Z,0.80
2022-08-20T03:52:51.208Z,0.83
2022-08-20T03:55:18.515Z,0.87
2022-08-20T03:57:50.542Z,0.90
2022-08-20T04:00:20.620Z,1.03
2022-08-20T04:02:48.000Z,0.70
2022-08-20T04:05:15.377Z,1.53
2022-08-20T04:07:42.703Z,1.10
2022-08-20T04:10:10.832Z,0.80
2022-08-20T04:12:48.745Z,0.87
2022-08-20T04:15:21.213Z,1.60
2022-08-20T04:17:50.217Z,1.23
2022-08-20T04:20:22.812Z,0.80
2022-08-20T04:22:58.298Z,1.00
2022-08-20T04:25:29.550Z,1.07
2022-08-20T04:27:58.726Z,0.70
2022-08-20T04:30:26.928Z,1.57
2022-08-20T04:32:55.350Z,1.07
2022-08-20T04:35:24.650Z,0.80
2022-08-20T04:37:58.850Z,1.17
2022-08-20T04:40:45.148Z,1.13
2022-08-20T04:43:12.687Z,1.40
2022-08-20T04:45:40.372Z,1.10
2022-08-20T04:48:10.643Z,1.20
2022-08-20T04:50:40.128Z,1.27
2022-08-20T04:53:09.777Z,1.03
2022-08-20T04:55:39.205Z,1.10
2022-08-20T04:58:07.463Z,1.07
2022-08-20T05:00:35.216Z,1.67
2022-08-20T05:03:02.665Z,1.23
2022-08-20T05:05:30.892Z,1.03
2022-08-20T05:07:58.372Z,1.10
2022-08-20T05:10:26.510Z,1.20
2022-08-20T05:12:57.019Z,0.80
2022-08-20T05:15:26.299Z,0.80
2022-08-20T05:18:00.642Z,1.00
2022-08-20T05:20:30.514Z,0.90
2022-08-20T05:22:58.946Z,1.00
2022-08-20T05:25:29.384Z,1.87
2022-08-20T05:27:58.365Z,0.90
2022-08-20T05:30:25.805Z,1.10
2022-08-20T05:32:53.143Z,0.93
2022-08-20T05:35:20.564Z,0.90
2022-08-20T05:37:47.888Z,0.90
2022-08-20T05:40:16.336Z,0.93
2022-08-20T05:42:43.837Z,0.87
2022-08-20T05:45:11.484Z,0.97
2022-08-20T05:47:42.689Z,1.03
2022-08-20T05:50:19.761Z,0.80
2022-08-20T05:52:50.742Z,2.47
2022-08-20T05:55:18.113Z,1.60
2022-08-20T05:57:45.777Z,1.10
2022-08-20T06:00:14.336Z,1.37
2022-08-20T06:03:01.453Z,1.10
2022-08-20T06:05:28.916Z,0.83
2022-08-20T06:08:07.148Z,0.97
2022-08-20T06:10:36.290Z,0.90
2022-08-20T06:13:03.652Z,0.90
2022-08-20T06:15:31.630Z,0.90
2022-08-20T06:17:59.272Z,1.00
2022-08-20T06:20:28.999Z,1.40
2022-08-20T06:22:56.882Z,1.10
2022-08-20T06:25:24.179Z,1.10
2022-08-20T06:27:51.479Z,0.90
2022-08-20T06:30:18.850Z,0.80
2022-08-20T06:32:46.235Z,1.23
2022-08-20T06:35:19.767Z,1.00
2022-08-20T06:37:47.507Z,1.00
2022-08-20T06:40:23.069Z,1.17
2022-08-20T06:42:51.141Z,1.20
2022-08-20T06:45:20.729Z,0.93
2022-08-20T06:47:48.286Z,0.83
2022-08-20T06:50:17.834Z,1.00
2022-08-20T06:52:53.030Z,0.90
2022-08-20T06:55:30.677Z,1.13
2022-08-20T06:58:02.497Z,1.00
2022-08-20T07:00:31.772Z,1.13
2022-08-20T07:03:01.088Z,0.90
2022-08-20T07:05:29.358Z,0.87
2022-08-20T07:07:56.723Z,1.00
2022-08-20T07:10:25.238Z,0.80
2022-08-20T07:12:52.836Z,0.97
2022-08-20T07:15:21.904Z,1.53
2022-08-20T07:17:50.589Z,0.80
2022-08-20T07:20:17.938Z,1.03
2022-08-20T07:22:45.267Z,1.00
2022-08-20T07:25:14.301Z,1.10
2022-08-20T07:27:42.739Z,0.67
2022-08-20T07:30:30.642Z,0.90
2022-08-20T07:32:58.429Z,1.10
2022-08-20T07:35:27.468Z,2.07
2022-08-20T07:37:54.956Z,1.00
2022-08-20T07:40:26.110Z,0.90
2022-08-20T07:42:54.791Z,0.90
2022-08-20T07:45:22.302Z,1.40
2022-08-20T07:47:50.006Z,1.30
2022-08-20T07:50:19.629Z,0.80
2022-08-20T07:52:47.219Z,1.03
2022-08-20T07:55:16.589Z,1.00
2022-08-20T07:57:46.833Z,0.97
2022-08-20T08:00:14.990Z,1.77
2022-08-20T08:02:42.368Z,1.00
2022-08-20T08:05:10.318Z,1.13
2022-08-20T08:07:39.204Z,0.93
2022-08-20T08:10:12.700Z,1.27
2022-08-20T08:12:44.204Z,0.93
2022-08-20T08:15:14.219Z,0.93
2022-08-20T08:17:42.261Z,1.00
2022-08-20T08:20:09.929Z,2.13
2022-08-20T08:22:37.281Z,1.00
2022-08-20T08:25:05.670Z,0.97
2022-08-20T08:27:34.271Z,1.10
2022-08-20T08:30:02.682Z,1.90
2022-08-20T08:32:33.562Z,0.97
2022-08-20T08:35:04.285Z,0.90
2022-08-20T08:37:31.900Z,0.97
2022-08-20T08:39:59.502Z,1.33
2022-08-20T08:42:30.045Z,0.80
2022-08-20T08:44:57.957Z,1.57
2022-08-20T08:47:29.585Z,1.87
2022-08-20T08:49:57.763Z,1.10
2022-08-20T08:52:27.141Z,1.03
2022-08-20T08:54:56.458Z,1.13
2022-08-20T08:57:24.161Z,0.90
2022-08-20T09:00:03.599Z,0.90
2022-08-20T09:02:32.612Z,0.80
2022-08-20T09:05:02.761Z,1.20
2022-08-20T09:07:33.633Z,1.33
2022-08-20T09:10:02.335Z,0.90
2022-08-20T09:12:29.725Z,1.53
2022-08-20T09:14:57.391Z,1.03
2022-08-20T09:17:25.035Z,2.17
2022-08-20T09:19:52.577Z,6.40
2022-08-20T09:22:22.161Z,3.53
2022-08-20T09:24:50.465Z,3.60
2022-08-20T09:27:18.401Z,2.50
2022-08-20T09:29:46.067Z,2.27
2022-08-20T09:32:23.965Z,1.83
2022-08-20T09:34:55.915Z,0.90
2022-08-20T09:37:24.282Z,1.60
2022-08-20T09:39:51.864Z,1.23
2022-08-20T09:42:20.719Z,3.63
2022-08-20T09:44:48.505Z,1.00
2022-08-20T09:47:17.275Z,1.43
2022-08-20T09:49:45.057Z,1.67
2022-08-20T09:52:18.700Z,1.03
2022-08-20T09:54:46.375Z,3.47
2022-08-20T09:57:15.414Z,1.90
2022-08-20T09:59:42.823Z,2.07
2022-08-20T10:02:10.257Z,0.97
2022-08-20T10:04:37.666Z,2.00
2022-08-20T10:07:07.830Z,0.83
2022-08-20T10:09:36.169Z,0.70
2022-08-20T10:12:03.970Z,1.40
2022-08-20T10:14:31.356Z,2.80
2022-08-20T10:17:00.140Z,0.80
2022-08-20T10:19:28.106Z,1.20
2022-08-20T10:21:55.525Z,1.40
2022-08-20T10:24:23.377Z,1.00
2022-08-20T10:26:50.958Z,0.80
2022-08-20T10:29:18.262Z,0.87
2022-08-20T10:31:45.566Z,0.93
2022-08-20T10:34:12.906Z,1.00
2022-08-20T10:36:42.261Z,0.80
2022-08-20T10:39:09.829Z,0.90
2022-08-20T10:41:39.046Z,1.50
2022-08-20T10:44:07.796Z,0.80
2022-08-20T10:46:35.463Z,0.73
2022-08-20T10:49:02.934Z,1.00
2022-08-20T10:51:32.185Z,0.73
2022-08-20T10:53:59.778Z,0.97
2022-08-20T10:56:27.096Z,0.87
2022-08-20T10:58:54.507Z,0.97
2022-08-20T11:01:31.307Z,0.80
2022-08-20T11:04:01.406Z,1.30
2022-08-20T11:06:28.890Z,0.80
2022-08-20T11:08:56.892Z,1.60
2022-08-20T11:11:24.538Z,1.00
2022-08-20T11:13:51.887Z,0.80
2022-08-20T11:16:19.237Z,1.50
2022-08-20T11:18:47.416Z,0.73
2022-08-20T11:21:15.188Z,1.60
2022-08-20T11:23:42.539Z,0.80
2022-08-20T11:26:10.672Z,1.13
2022-08-20T11:28:38.058Z,1.13
2022-08-20T11:31:05.402Z,0.63
2022-08-20T11:33:32.709Z,0.70
2022-08-20T11:36:00.065Z,0.80
2022-08-20T11:38:27.397Z,1.27
2022-08-20T11:40:54.710Z,1.67
2022-08-20T11:43:22.097Z,0.80
2022-08-20T11:45:51.075Z,0.87
2022-08-20T11:48:18.431Z,1.50
2022-08-20T11:50:46.408Z,1.27
2022-08-20T11:53:14.844Z,1.37
2022-08-20T11:55:42.387Z,1.70
2022-08-20T11:58:10.448Z,0.77
2022-08-20T12:00:37.813Z,0.90
2022-08-20T12:03:09.577Z,0.87
2022-08-20T12:05:41.743Z,0.63
2022-08-20T12:08:09.309Z,0.87
2022-08-20T12:10:37.258Z,0.73
2022-08-20T12:13:05.253Z,1.17
2022-08-20T12:15:33.401Z,1.13
2022-08-20T12:18:01.305Z,0.80
2022-08-20T12:20:28.727Z,0.90
2022-08-20T12:22:56.290Z,1.20
2022-08-20T12:25:23.710Z,0.97
2022-08-20T12:27:51.111Z,1.00
2022-08-20T12:30:20.062Z,1.33
2022-08-20T12:32:47.864Z,1.03
2022-08-20T12:35:15.950Z,2.50
2022-08-20T12:37:43.904Z,1.33
2022-08-20T12:40:13.798Z,1.90
2022-08-20T12:42:41.248Z,1.20
2022-08-20T12:45:09.233Z,0.80
2022-08-20T12:47:38.026Z,1.40
2022-08-20T12:50:07.624Z,0.97
2022-08-20T12:52:34.947Z,0.87
2022-08-20T12:55:02.755Z,1.87
2022-08-20T12:57:31.434Z,2.47
2022-08-20T13:00:03.738Z,0.90
2022-08-20T13:02:32.358Z,1.20
2022-08-20T13:05:04.604Z,1.13
2022-08-20T13:07:32.881Z,0.90
2022-08-20T13:10:00.429Z,0.80
2022-08-20T13:12:28.050Z,0.70
2022-08-20T13:14:55.388Z,0.83
2022-08-20T13:17:31.840Z,1.00
2022-08-20T13:20:07.399Z,1.10
2022-08-20T13:22:35.417Z,0.90
2022-08-20T13:25:02.818Z,1.40
2022-08-20T13:27:30.235Z,1.30
2022-08-20T13:29:59.018Z,1.70
2022-08-20T13:32:26.905Z,1.10
2022-08-20T13:34:54.214Z,0.87
2022-08-20T13:37:25.527Z,1.27
2022-08-20T13:39:53.969Z,1.07
2022-08-20T13:42:21.362Z,1.00
2022-08-20T13:44:49.086Z,0.90
2022-08-20T13:47:16.395Z,1.03
2022-08-20T13:49:43.713Z,1.20
2022-08-20T13:52:11.113Z,1.03
2022-08-20T13:54:38.745Z,0.90
2022-08-20T13:57:13.834Z,1.30
2022-08-20T13:59:42.327Z,1.00
2022-08-20T14:02:10.003Z,1.00
2022-08-20T14:04:37.631Z,1.60
2022-08-20T14:07:16.021Z,1.00
2022-08-20T14:09:44.638Z,1.20
2022-08-20T14:12:13.295Z,1.47
2022-08-20T14:14:40.909Z,1.30
2022-08-20T14:17:19.114Z,1.10
2022-08-20T14:19:48.398Z,1.17
2022-08-20T14:22:17.773Z,2.83
2022-08-20T14:24:48.717Z,1.17
2022-08-20T14:27:17.059Z,1.10
2022-08-20T14:29:45.237Z,1.03
2022-08-20T14:32:13.031Z,1.37
2022-08-20T14:34:40.984Z,1.00
2022-08-20T14:37:18.894Z,0.80
2022-08-20T14:39:47.860Z,1.27
2022-08-20T14:42:15.542Z,1.00
2022-08-20T14:44:43.325Z,1.87
2022-08-20T14:47:18.643Z,0.87
2022-08-20T14:49:46.561Z,1.43
2022-08-20T14:52:14.461Z,0.93
2022-08-20T14:54:41.996Z,0.70
2022-08-20T14:57:13.159Z,0.70
2022-08-20T14:59:41.107Z,0.80
2022-08-20T15:02:09.427Z,0.80
2022-08-20T15:04:37.384Z,1.57
2022-08-20T15:07:08.091Z,2.33
2022-08-20T15:09:38.515Z,2.30
2022-08-20T15:12:05.989Z,1.00
2022-08-20T15:14:33.314Z,1.47
2022-08-20T15:17:00.931Z,1.00
2022-08-20T15:19:28.264Z,0.93
2022-08-20T15:21:55.774Z,1.10
2022-08-20T15:24:23.129Z,1.73
2022-08-20T15:26:50.451Z,4.20
2022-08-20T15:29:22.910Z,5.47
2022-08-20T15:31:51.024Z,5.47
2022-08-20T15:34:18.556Z,1.87
2022-08-20T15:36:46.347Z,2.13
2022-08-20T15:39:13.656Z,1.37
2022-08-20T15:41:40.977Z,2.07
2022-08-20T15:44:08.390Z,1.13
2022-08-20T15:46:37.540Z,2.73
2022-08-20T15:49:10.298Z,1.30
2022-08-20T15:51:37.596Z,1.23
2022-08-20T15:54:12.672Z,0.90
2022-08-20T15:57:01.854Z,0.73
2022-08-20T15:59:40.830Z,1.50
2022-08-20T16:02:25.853Z,0.60
2022-08-20T16:05:01.543Z,0.60
2022-08-20T16:07:47.431Z,0.70
2022-08-20T16:10:23.539Z,0.57
2022-08-20T16:12:53.007Z,0.60
2022-08-20T16:15:49.587Z,0.87
2022-08-20T16:18:19.319Z,1.13
2022-08-20T16:20:48.189Z,1.27
2022-08-20T16:23:16.962Z,0.73
2022-08-20T16:26:00.513Z,0.70
2022-08-20T16:28:32.507Z,0.70
2022-08-20T16:31:12.014Z,1.53
2022-08-20T16:33:44.538Z,2.50
2022-08-20T16:36:15.185Z,3.37
2022-08-20T16:38:46.599Z,2.13
2022-08-20T16:41:16.347Z,1.70
2022-08-20T16:43:49.697Z,2.90
2022-08-20T16:46:26.452Z,3.30
2022-08-20T16:48:57.941Z,2.50
2022-08-20T16:51:50.914Z,2.20
2022-08-20T16:54:29.409Z,4.07
2022-08-20T16:57:00.331Z,2.80
2022-08-20T16:59:28.322Z,5.37
2022-08-20T17:02:11.783Z,6.80
2022-08-20T17:04:58.617Z,4.13
2022-08-20T17:07:31.003Z,3.47
2022-08-20T17:10:12.442Z,4.27
2022-08-20T17:12:39.740Z,3.73
2022-08-20T17:15:07.446Z,2.83
2022-08-20T17:17:36.646Z,4.67
2022-08-20T17:20:16.173Z,3.50
2022-08-20T17:22:50.434Z,3.67
2022-08-20T17:25:20.138Z,4.70
2022-08-20T17:27:48.449Z,3.70
2022-08-20T17:30:21.198Z,1.90
2022-08-20T17:32:50.576Z,2.07
2022-08-20T17:35:28.945Z,1.63
2022-08-20T17:37:56.506Z,1.40
2022-08-20T17:40:26.695Z,1.10
2022-08-20T17:43:01.284Z,0.90
2022-08-20T17:45:48.871Z,2.33
2022-08-20T17:48:17.528Z,2.77
2022-08-20T17:50:44.899Z,0.97
2022-08-20T17:53:23.435Z,1.13
2022-08-20T17:55:54.052Z,0.90
2022-08-20T17:58:23.718Z,0.90
2022-08-20T18:00:51.014Z,0.70
2022-08-20T18:03:22.950Z,0.83
2022-08-20T18:05:52.410Z,1.13
2022-08-20T18:08:38.830Z,2.57
2022-08-20T18:11:20.169Z,2.17
2022-08-20T18:14:06.525Z,0.70
2022-08-20T18:16:39.056Z,0.70
2022-08-20T18:19:15.027Z,0.77
2022-08-20T18:21:42.322Z,0.90
2022-08-20T18:24:12.762Z,1.07
2022-08-20T18:26:45.669Z,0.80
2022-08-20T18:29:19.022Z,0.80
2022-08-20T18:31:49.857Z,0.77
2022-08-20T18:34:20.028Z,0.90
2022-08-20T18:36:55.306Z,0.50
2022-08-20T18:39:26.694Z,0.73
2022-08-20T18:41:58.681Z,0.70
2022-08-20T18:44:35.049Z,1.63
2022-08-20T18:47:06.269Z,0.87
2022-08-20T18:49:35.926Z,0.90
2022-08-20T18:52:14.223Z,1.53
2022-08-20T18:54:43.113Z,1.43
2022-08-20T18:57:22.542Z,1.03
2022-08-20T18:59:55.201Z,1.00
2022-08-20T19:02:29.356Z,1.20
2022-08-20T19:05:02.081Z,1.47
2022-08-20T19:07:43.113Z,1.10
2022-08-20T19:10:27.505Z,1.60
2022-08-20T19:13:15.467Z,1.00
2022-08-20T19:15:45.159Z,0.90
2022-08-20T19:18:18.274Z,1.20
2022-08-20T19:20:53.458Z,1.10
2022-08-20T19:23:22.426Z,1.80
2022-08-20T19:25:57.722Z,1.33
2022-08-20T19:28:30.034Z,1.47
2022-08-20T19:30:58.054Z,0.80
2022-08-20T19:33:26.434Z,1.07
2022-08-20T19:36:08.070Z,1.10
2022-08-20T19:38:35.391Z,0.80
2022-08-20T19:41:11.079Z,1.20
2022-08-20T19:43:45.750Z,1.83
2022-08-20T19:46:13.943Z,0.90
2022-08-20T19:48:47.341Z,1.47
2022-08-20T19:51:21.471Z,1.23
2022-08-20T19:53:49.537Z,0.90
2022-08-20T19:56:18.778Z,0.83
2022-08-20T19:58:46.400Z,1.17
2022-08-20T20:01:18.984Z,0.90
2022-08-20T20:04:03.344Z,0.70
2022-08-20T20:06:33.809Z,0.83
2022-08-20T20:09:02.898Z,1.57
2022-08-20T20:11:38.500Z,0.73
2022-08-20T20:14:07.649Z,1.20
2022-08-20T20:16:35.454Z,1.00
2022-08-20T20:19:25.213Z,1.10
2022-08-20T20:22:01.659Z,0.93
2022-08-20T20:24:30.483Z,1.20
2022-08-20T20:26:59.877Z,0.90
2022-08-20T20:29:28.749Z,1.17
2022-08-20T20:31:57.836Z,1.13
2022-08-20T20:34:27.159Z,1.50
2022-08-20T20:37:37.921Z,0.93
2022-08-20T20:40:13.021Z,1.07
2022-08-20T20:42:57.430Z,1.00
2022-08-20T20:45:29.648Z,2.07
2022-08-20T20:47:56.990Z,1.37
2022-08-20T20:50:34.195Z,0.80
2022-08-20T20:53:02.146Z,1.53
2022-08-20T20:55:30.899Z,1.00
2022-08-20T20:57:58.830Z,1.30
2022-08-20T21:00:31.450Z,1.50
2022-08-20T21:03:00.244Z,1.20
2022-08-20T21:05:31.440Z,0.83
2022-08-20T21:08:00.272Z,1.13
2022-08-20T21:10:30.357Z,0.93
2022-08-20T21:12:57.784Z,1.03
2022-08-20T21:15:25.975Z,0.80
2022-08-20T21:17:53.647Z,2.90
2022-08-20T21:20:22.739Z,1.00
2022-08-20T21:22:50.071Z,0.83
2022-08-20T21:25:18.914Z,0.97
2022-08-20T21:27:47.366Z,1.17
2022-08-20T21:30:14.894Z,1.30
2022-08-20T21:32:42.238Z,1.30
2022-08-20T21:35:10.090Z,0.93
2022-08-20T21:37:37.539Z,0.80
2022-08-20T21:40:05.938Z,2.00
2022-08-20T21:42:33.479Z,0.80
2022-08-20T21:45:05.647Z,1.30
2022-08-20T21:47:32.982Z,0.97
2022-08-20T21:50:00.345Z,1.30
2022-08-20T21:52:27.697Z,0.90
2022-08-20T21:54:54.999Z,0.80
2022-08-20T21:57:24.535Z,1.10
2022-08-20T21:59:52.171Z,1.50
2022-08-20T22:02:20.037Z,0.90
2022-08-20T22:04:47.414Z,0.80
2022-08-20T22:07:15.846Z,0.83
2022-08-20T22:09:43.701Z,1.00
2022-08-20T22:12:15.990Z,1.00
2022-08-20T22:14:43.391Z,1.27
2022-08-20T22:17:10.770Z,0.80
2022-08-20T22:19:38.044Z,0.80
2022-08-20T22:22:05.471Z,0.90
2022-08-20T22:24:32.847Z,1.50
2022-08-20T22:27:00.301Z,1.00
2022-08-20T22:29:27.643Z,1.40
2022-08-20T22:31:55.086Z,1.30
2022-08-20T22:34:22.456Z,0.80
2022-08-20T22:36:51.280Z,0.90
2022-08-20T22:39:18.554Z,1.37
2022-08-20T22:41:46.014Z,1.03
2022-08-20T22:44:13.307Z,1.20
2022-08-20T22:46:47.392Z,1.20
2022-08-20T22:49:18.018Z,1.00
2022-08-20T22:51:45.459Z,0.80
2022-08-20T22:54:16.511Z,1.00
2022-08-20T22:56:43.833Z,0.90
2022-08-20T22:59:11.231Z,1.10
2022-08-20T23:01:38.646Z,1.10
2022-08-20T23:04:10.210Z,1.33
2022-08-20T23:06:37.671Z,3.17
2022-08-20T23:09:05.096Z,1.13
2022-08-20T23:11:32.559Z,0.90
2022-08-20T23:13:59.895Z,1.17
2022-08-20T23:16:27.362Z,1.00
2022-08-20T23:18:54.872Z,1.43
2022-08-20T23:21:22.223Z,1.80
2022-08-20T23:23:49.575Z,1.67
2022-08-20T23:26:20.090Z,1.00
2022-08-20T23:28:47.798Z,0.97
2022-08-20T23:31:15.385Z,1.53
2022-08-20T23:33:44.849Z,1.10
2022-08-20T23:36:12.612Z,1.37
2022-08-20T23:38:39.917Z,0.97
2022-08-20T23:41:07.250Z,1.03
2022-08-20T23:43:34.567Z,0.93
2022-08-20T23:46:03.111Z,0.90
2022-08-20T23:48:30.467Z,1.00
2022-08-20T23:50:57.991Z,1.20
2022-08-20T23:53:25.415Z,0.80
2022-08-20T23:55:52.724Z,1.43
2022-08-20T23:58:20.101Z,1.37
